sensor_id;sensor_type;location;lat;lon;timestamp;P1;durP1;ratioP1;P2;durP2;ratioP2
4089;SDS011;2059;48.538;12.146;2022-08-30T00:00:58;10.67;;;9.70;;
4089;SDS011;2059;48.538;12.146;2022-08-30T00:06:05;10.93;;;9.80;;
4089;SDS011;2059;48.538;12.146;2022-08-30T00:11:10;10.57;;;9.60;;
4089;SDS011;2059;48.538;12.146;2022-08-30T00:16:14;13.33;;;12.13;;
4089;SDS011;2059;48.538;12.146;2022-08-30T00:21:18;13.40;;;12.30;;
4089;SDS011;2059;48.538;12.146;2022-08-30T00:26:19;14.70;;;13.50;;
4089;SDS011;2059;48.538;12.146;2022-08-30T00:31:21;13.33;;;12.13;;
4089;SDS011;2059;48.538;12.146;2022-08-30T00:36:25;12.90;;;11.70;;
4089;SDS011;2059;48.538;12.146;2022-08-30T00:41:26;14.27;;;13.07;;
4089;SDS011;2059;48.538;12.146;2022-08-30T00:46:28;11.23;;;10.17;;
4089;SDS011;2059;48.538;12.146;2022-08-30T00:51:32;12.63;;;11.40;;
4089;SDS011;2059;48.538;12.146;2022-08-30T00:56:35;11.97;;;10.80;;
4089;SDS011;2059;48.538;12.146;2022-08-30T01:01:37;11.87;;;10.87;;
4089;SDS011;2059;48.538;12.146;2022-08-30T01:06:40;12.93;;;10.87;;
4089;SDS011;2059;48.538;12.146;2022-08-30T01:11:42;12.63;;;11.40;;
4089;SDS011;2059;48.538;12.146;2022-08-30T01:16:45;11.23;;;10.13;;
4089;SDS011;2059;48.538;12.146;2022-08-30T01:21:49;11.57;;;10.20;;
4089;SDS011;2059;48.538;12.146;2022-08-30T01:26:57;27.43;;;11.40;;
4089;SDS011;2059;48.538;12.146;2022-08-30T01:31:59;11.80;;;10.60;;
4089;SDS011;2059;48.538;12.146;2022-08-30T01:37:01;11.83;;;10.60;;
4089;SDS011;2059;48.538;12.146;2022-08-30T01:42:04;12.03;;;10.67;;
4089;SDS011;2059;48.538;12.146;2022-08-30T01:47:06;12.00;;;10.80;;
4089;SDS011;2059;48.538;12.146;2022-08-30T01:52:08;11.37;;;10.30;;
4089;SDS011;2059;48.538;12.146;2022-08-30T01:57:12;13.13;;;12.00;;
4089;SDS011;2059;48.538;12.146;2022-08-30T02:02:17;14.30;;;13.00;;
4089;SDS011;2059;48.538;12.146;2022-08-30T02:07:22;13.07;;;11.70;;
4089;SDS011;2059;48.538;12.146;2022-08-30T02:12:26;12.70;;;11.40;;
4089;SDS011;2059;48.538;12.146;2022-08-30T02:17:29;15.97;;;10.70;;
4089;SDS011;2059;48.538;12.146;2022-08-30T02:22:32;14.57;;;13.27;;
4089;SDS011;2059;48.538;12.146;2022-08-30T02:27:36;14.40;;;13.10;;
4089;SDS011;2059;48.538;12.146;2022-08-30T02:32:37;14.87;;;13.17;;
4089;SDS011;2059;48.538;12.146;2022-08-30T02:37:40;14.70;;;13.30;;
4089;SDS011;2059;48.538;12.146;2022-08-30T02:42:43;15.10;;;13.80;;
4089;SDS011;2059;48.538;12.146;2022-08-30T02:47:45;15.47;;;14.00;;
4089;SDS011;2059;48.538;12.146;2022-08-30T02:52:47;14.20;;;12.77;;
4089;SDS011;2059;48.538;12.146;2022-08-30T02:57:50;17.30;;;13.50;;
4089;SDS011;2059;48.538;12.146;2022-08-30T03:02:52;16.90;;;14.20;;
4089;SDS011;2059;48.538;12.146;2022-08-30T03:07:54;12.57;;;11.23;;
4089;SDS011;2059;48.538;12.146;2022-08-30T03:12:57;11.80;;;10.70;;
4089;SDS011;2059;48.538;12.146;2022-08-30T03:18:00;13.73;;;12.37;;
4089;SDS011;2059;48.538;12.146;2022-08-30T03:23:01;14.20;;;11.40;;
4089;SDS011;2059;48.538;12.146;2022-08-30T03:28:05;11.57;;;10.53;;
4089;SDS011;2059;48.538;12.146;2022-08-30T03:33:07;11.83;;;10.73;;
4089;SDS011;2059;48.538;12.146;2022-08-30T03:38:09;13.77;;;10.80;;
4089;SDS011;2059;48.538;12.146;2022-08-30T03:43:12;12.83;;;11.53;;
4089;SDS011;2059;48.538;12.146;2022-08-30T03:48:14;12.20;;;11.00;;
4089;SDS011;2059;48.538;12.146;2022-08-30T03:53:16;15.17;;;13.77;;
4089;SDS011;2059;48.538;12.146;2022-08-30T03:58:20;15.40;;;14.00;;
4089;SDS011;2059;48.538;12.146;2022-08-30T04:03:21;15.83;;;14.40;;
4089;SDS011;2059;48.538;12.146;2022-08-30T04:08:26;15.37;;;13.87;;
4089;SDS011;2059;48.538;12.146;2022-08-30T04:13:29;16.50;;;14.10;;
4089;SDS011;2059;48.538;12.146;2022-08-30T04:18:31;18.03;;;13.60;;
4089;SDS011;2059;48.538;12.146;2022-08-30T04:23:34;14.77;;;13.57;;
4089;SDS011;2059;48.538;12.146;2022-08-30T04:28:38;15.00;;;13.80;;
4089;SDS011;2059;48.538;12.146;2022-08-30T04:33:40;15.47;;;14.07;;
4089;SDS011;2059;48.538;12.146;2022-08-30T04:38:42;16.40;;;14.80;;
4089;SDS011;2059;48.538;12.146;2022-08-30T04:43:46;16.53;;;14.50;;
4089;SDS011;2059;48.538;12.146;2022-08-30T04:48:49;15.87;;;14.50;;
4089;SDS011;2059;48.538;12.146;2022-08-30T04:53:51;18.27;;;15.17;;
4089;SDS011;2059;48.538;12.146;2022-08-30T04:58:54;17.07;;;15.27;;
4089;SDS011;2059;48.538;12.146;2022-08-30T05:03:57;17.00;;;15.30;;
4089;SDS011;2059;48.538;12.146;2022-08-30T05:08:59;17.73;;;15.93;;
4089;SDS011;2059;48.538;12.146;2022-08-30T05:14:02;21.03;;;16.00;;
4089;SDS011;2059;48.538;12.146;2022-08-30T05:19:04;18.93;;;15.40;;
4089;SDS011;2059;48.538;12.146;2022-08-30T05:24:07;17.07;;;15.23;;
4089;SDS011;2059;48.538;12.146;2022-08-30T05:29:10;17.80;;;15.93;;
4089;SDS011;2059;48.538;12.146;2022-08-30T05:34:12;17.13;;;15.47;;
4089;SDS011;2059;48.538;12.146;2022-08-30T05:39:14;18.53;;;16.30;;
4089;SDS011;2059;48.538;12.146;2022-08-30T05:44:17;17.83;;;15.97;;
4089;SDS011;2059;48.538;12.146;2022-08-30T05:49:19;16.93;;;15.33;;
4089;SDS011;2059;48.538;12.146;2022-08-30T05:54:20;18.20;;;16.30;;
4089;SDS011;2059;48.538;12.146;2022-08-30T05:59:23;20.03;;;17.57;;
4089;SDS011;2059;48.538;12.146;2022-08-30T06:04:25;20.73;;;17.00;;
4089;SDS011;2059;48.538;12.146;2022-08-30T06:09:27;19.30;;;17.40;;
4089;SDS011;2059;48.538;12.146;2022-08-30T06:14:30;19.90;;;17.83;;
4089;SDS011;2059;48.538;12.146;2022-08-30T06:19:33;19.63;;;17.63;;
4089;SDS011;2059;48.538;12.146;2022-08-30T06:24:34;19.93;;;17.93;;
4089;SDS011;2059;48.538;12.146;2022-08-30T06:29:37;19.97;;;17.87;;
4089;SDS011;2059;48.538;12.146;2022-08-30T06:34:39;19.20;;;17.33;;
4089;SDS011;2059;48.538;12.146;2022-08-30T06:39:41;22.00;;;18.47;;
4089;SDS011;2059;48.538;12.146;2022-08-30T06:44:44;16.97;;;15.20;;
4089;SDS011;2059;48.538;12.146;2022-08-30T06:49:46;18.83;;;15.40;;
4089;SDS011;2059;48.538;12.146;2022-08-30T06:54:48;19.80;;;17.70;;
4089;SDS011;2059;48.538;12.146;2022-08-30T06:59:55;22.20;;;18.17;;
4089;SDS011;2059;48.538;12.146;2022-08-30T07:04:57;17.27;;;15.47;;
4089;SDS011;2059;48.538;12.146;2022-08-30T07:10:01;15.87;;;14.20;;
4089;SDS011;2059;48.538;12.146;2022-08-30T07:15:05;16.00;;;14.40;;
4089;SDS011;2059;48.538;12.146;2022-08-30T07:20:08;15.53;;;13.93;;
4089;SDS011;2059;48.538;12.146;2022-08-30T07:25:10;19.20;;;17.30;;
4089;SDS011;2059;48.538;12.146;2022-08-30T07:30:14;22.23;;;15.03;;
4089;SDS011;2059;48.538;12.146;2022-08-30T07:35:16;17.73;;;16.20;;
4089;SDS011;2059;48.538;12.146;2022-08-30T07:40:18;14.30;;;12.90;;
4089;SDS011;2059;48.538;12.146;2022-08-30T07:45:22;16.70;;;15.00;;
4089;SDS011;2059;48.538;12.146;2022-08-30T07:50:24;16.13;;;14.70;;
4089;SDS011;2059;48.538;12.146;2022-08-30T07:55:25;18.00;;;16.10;;
4089;SDS011;2059;48.538;12.146;2022-08-30T08:00:29;18.83;;;17.00;;
4089;SDS011;2059;48.538;12.146;2022-08-30T08:05:31;16.60;;;15.10;;
4089;SDS011;2059;48.538;12.146;2022-08-30T08:10:36;16.60;;;15.00;;
4089;SDS011;2059;48.538;12.146;2022-08-30T08:15:41;16.80;;;15.30;;
4089;SDS011;2059;48.538;12.146;2022-08-30T08:20:43;14.30;;;12.90;;
4089;SDS011;2059;48.538;12.146;2022-08-30T08:25:45;13.70;;;12.50;;
4089;SDS011;2059;48.538;12.146;2022-08-30T08:30:48;17.13;;;12.17;;
4089;SDS011;2059;48.538;12.146;2022-08-30T08:35:51;12.33;;;11.23;;
4089;SDS011;2059;48.538;12.146;2022-08-30T08:40:54;12.00;;;11.00;;
4089;SDS011;2059;48.538;12.146;2022-08-30T08:46:08;11.63;;;10.67;;
4089;SDS011;2059;48.538;12.146;2022-08-30T08:51:17;11.50;;;10.50;;
4089;SDS011;2059;48.538;12.146;2022-08-30T08:56:52;9.53;;;8.83;;
4089;SDS011;2059;48.538;12.146;2022-08-30T09:01:56;10.53;;;9.57;;
4089;SDS011;2059;48.538;12.146;2022-08-30T09:07:02;12.00;;;10.90;;
4089;SDS011;2059;48.538;12.146;2022-08-30T09:12:09;10.20;;;9.40;;
4089;SDS011;2059;48.538;12.146;2022-08-30T09:17:15;10.20;;;9.47;;
4089;SDS011;2059;48.538;12.146;2022-08-30T09:22:20;10.30;;;9.50;;
4089;SDS011;2059;48.538;12.146;2022-08-30T09:27:26;9.47;;;8.77;;
4089;SDS011;2059;48.538;12.146;2022-08-30T09:32:34;12.03;;;11.03;;
4089;SDS011;2059;48.538;12.146;2022-08-30T09:37:40;12.20;;;9.60;;
4089;SDS011;2059;48.538;12.146;2022-08-30T09:42:59;9.13;;;8.53;;
4089;SDS011;2059;48.538;12.146;2022-08-30T09:48:22;9.37;;;8.57;;
4089;SDS011;2059;48.538;12.146;2022-08-30T09:53:30;10.50;;;9.70;;
4089;SDS011;2059;48.538;12.146;2022-08-30T09:58:40;11.00;;;10.10;;
4089;SDS011;2059;48.538;12.146;2022-08-30T10:03:55;10.60;;;9.60;;
4089;SDS011;2059;48.538;12.146;2022-08-30T10:09:10;10.20;;;8.80;;
4089;SDS011;2059;48.538;12.146;2022-08-30T10:14:24;10.10;;;9.30;;
4089;SDS011;2059;48.538;12.146;2022-08-30T10:19:47;8.97;;;8.03;;
4089;SDS011;2059;48.538;12.146;2022-08-30T10:25:00;9.10;;;8.40;;
4089;SDS011;2059;48.538;12.146;2022-08-30T10:30:06;9.80;;;8.90;;
4089;SDS011;2059;48.538;12.146;2022-08-30T10:35:13;10.20;;;9.40;;
4089;SDS011;2059;48.538;12.146;2022-08-30T10:40:22;8.47;;;7.87;;
4089;SDS011;2059;48.538;12.146;2022-08-30T10:45:46;9.07;;;8.17;;
4089;SDS011;2059;48.538;12.146;2022-08-30T10:50:53;9.43;;;8.73;;
4089;SDS011;2059;48.538;12.146;2022-08-30T10:55:59;9.60;;;8.80;;
4089;SDS011;2059;48.538;12.146;2022-08-30T11:01:10;9.00;;;8.37;;
4089;SDS011;2059;48.538;12.146;2022-08-30T11:06:28;8.63;;;7.93;;
4089;SDS011;2059;48.538;12.146;2022-08-30T11:11:40;9.27;;;8.50;;
4089;SDS011;2059;48.538;12.146;2022-08-30T11:16:55;8.90;;;8.10;;
4089;SDS011;2059;48.538;12.146;2022-08-30T11:22:09;9.23;;;8.63;;
4089;SDS011;2059;48.538;12.146;2022-08-30T11:38:00;8.60;;;7.90;;
4089;SDS011;2059;48.538;12.146;2022-08-30T11:48:57;9.17;;;8.40;;
4089;SDS011;2059;48.538;12.146;2022-08-30T11:54:08;8.70;;;8.03;;
4089;SDS011;2059;48.538;12.146;2022-08-30T11:59:19;8.33;;;7.73;;
4089;SDS011;2059;48.538;12.146;2022-08-30T12:04:27;9.07;;;8.27;;
4089;SDS011;2059;48.538;12.146;2022-08-30T12:15:05;8.83;;;7.97;;
4089;SDS011;2059;48.538;12.146;2022-08-30T12:20:10;8.80;;;8.17;;
4089;SDS011;2059;48.538;12.146;2022-08-30T12:25:23;8.20;;;7.47;;
4089;SDS011;2059;48.538;12.146;2022-08-30T12:30:27;8.53;;;8.00;;
4089;SDS011;2059;48.538;12.146;2022-08-30T12:35:29;8.27;;;7.67;;
4089;SDS011;2059;48.538;12.146;2022-08-30T12:40:33;9.37;;;8.60;;
4089;SDS011;2059;48.538;12.146;2022-08-30T12:45:36;8.20;;;7.60;;
4089;SDS011;2059;48.538;12.146;2022-08-30T12:50:43;8.10;;;7.57;;
4089;SDS011;2059;48.538;12.146;2022-08-30T12:55:53;7.20;;;6.73;;
4089;SDS011;2059;48.538;12.146;2022-08-30T13:01:10;8.10;;;7.43;;
4089;SDS011;2059;48.538;12.146;2022-08-30T13:06:33;8.13;;;7.50;;
4089;SDS011;2059;48.538;12.146;2022-08-30T13:11:38;8.67;;;8.00;;
4089;SDS011;2059;48.538;12.146;2022-08-30T13:16:40;9.60;;;8.90;;
4089;SDS011;2059;48.538;12.146;2022-08-30T13:21:45;8.33;;;7.73;;
4089;SDS011;2059;48.538;12.146;2022-08-30T13:26:52;9.50;;;8.90;;
4089;SDS011;2059;48.538;12.146;2022-08-30T13:31:55;8.80;;;8.20;;
4089;SDS011;2059;48.538;12.146;2022-08-30T13:36:57;8.30;;;7.70;;
4089;SDS011;2059;48.538;12.146;2022-08-30T13:42:01;8.63;;;8.10;;
4089;SDS011;2059;48.538;12.146;2022-08-30T13:47:05;8.73;;;8.17;;
4089;SDS011;2059;48.538;12.146;2022-08-30T13:52:11;9.33;;;8.63;;
4089;SDS011;2059;48.538;12.146;2022-08-30T13:57:17;8.70;;;7.83;;
4089;SDS011;2059;48.538;12.146;2022-08-30T14:02:21;8.83;;;7.43;;
4089;SDS011;2059;48.538;12.146;2022-08-30T14:07:23;9.33;;;7.70;;
4089;SDS011;2059;48.538;12.146;2022-08-30T14:12:26;7.97;;;7.27;;
4089;SDS011;2059;48.538;12.146;2022-08-30T14:17:28;9.27;;;8.60;;
4089;SDS011;2059;48.538;12.146;2022-08-30T14:22:31;8.30;;;7.70;;
4089;SDS011;2059;48.538;12.146;2022-08-30T14:27:34;8.30;;;7.70;;
4089;SDS011;2059;48.538;12.146;2022-08-30T14:32:36;8.07;;;7.47;;
4089;SDS011;2059;48.538;12.146;2022-08-30T14:37:38;8.00;;;7.40;;
4089;SDS011;2059;48.538;12.146;2022-08-30T14:42:41;8.87;;;8.13;;
4089;SDS011;2059;48.538;12.146;2022-08-30T14:47:43;9.70;;;8.90;;
4089;SDS011;2059;48.538;12.146;2022-08-30T14:52:45;8.90;;;8.30;;
4089;SDS011;2059;48.538;12.146;2022-08-30T14:57:48;8.83;;;8.33;;
4089;SDS011;2059;48.538;12.146;2022-08-30T15:02:50;9.10;;;8.50;;
4089;SDS011;2059;48.538;12.146;2022-08-30T15:07:52;9.43;;;8.63;;
4089;SDS011;2059;48.538;12.146;2022-08-30T15:12:55;8.33;;;7.70;;
4089;SDS011;2059;48.538;12.146;2022-08-30T15:17:57;8.30;;;7.50;;
4089;SDS011;2059;48.538;12.146;2022-08-30T15:22:59;8.10;;;7.50;;
4089;SDS011;2059;48.538;12.146;2022-08-30T15:28:02;8.33;;;7.67;;
4089;SDS011;2059;48.538;12.146;2022-08-30T15:33:04;8.10;;;7.40;;
4089;SDS011;2059;48.538;12.146;2022-08-30T15:38:05;7.87;;;7.17;;
4089;SDS011;2059;48.538;12.146;2022-08-30T15:43:09;8.37;;;7.70;;
4089;SDS011;2059;48.538;12.146;2022-08-30T15:48:10;7.63;;;7.13;;
4089;SDS011;2059;48.538;12.146;2022-08-30T15:53:12;8.00;;;7.50;;
4089;SDS011;2059;48.538;12.146;2022-08-30T15:58:15;7.80;;;7.30;;
4089;SDS011;2059;48.538;12.146;2022-08-30T16:03:17;8.50;;;7.80;;
4089;SDS011;2059;48.538;12.146;2022-08-30T16:08:19;7.57;;;7.07;;
4089;SDS011;2059;48.538;12.146;2022-08-30T16:13:22;8.80;;;8.00;;
4089;SDS011;2059;48.538;12.146;2022-08-30T16:18:24;8.23;;;7.63;;
4089;SDS011;2059;48.538;12.146;2022-08-30T16:23:26;9.27;;;8.47;;
4089;SDS011;2059;48.538;12.146;2022-08-30T16:28:29;9.97;;;7.80;;
4089;SDS011;2059;48.538;12.146;2022-08-30T16:33:31;8.47;;;7.90;;
4089;SDS011;2059;48.538;12.146;2022-08-30T16:38:33;8.30;;;7.50;;
4089;SDS011;2059;48.538;12.146;2022-08-30T16:43:37;8.17;;;7.53;;
4089;SDS011;2059;48.538;12.146;2022-08-30T16:48:40;9.77;;;8.93;;
4089;SDS011;2059;48.538;12.146;2022-08-30T16:53:43;8.13;;;7.53;;
4089;SDS011;2059;48.538;12.146;2022-08-30T16:58:47;9.73;;;8.93;;
4089;SDS011;2059;48.538;12.146;2022-08-30T17:03:49;8.20;;;7.60;;
4089;SDS011;2059;48.538;12.146;2022-08-30T17:08:51;7.90;;;7.27;;
4089;SDS011;2059;48.538;12.146;2022-08-30T17:13:54;7.93;;;7.20;;
4089;SDS011;2059;48.538;12.146;2022-08-30T17:18:56;9.80;;;9.00;;
4089;SDS011;2059;48.538;12.146;2022-08-30T17:23:59;11.50;;;10.50;;
4089;SDS011;2059;48.538;12.146;2022-08-30T17:29:04;10.80;;;9.73;;
4089;SDS011;2059;48.538;12.146;2022-08-30T17:34:06;11.63;;;10.50;;
4089;SDS011;2059;48.538;12.146;2022-08-30T17:39:08;11.40;;;10.13;;
4089;SDS011;2059;48.538;12.146;2022-08-30T17:44:14;11.40;;;9.23;;
4089;SDS011;2059;48.538;12.146;2022-08-30T17:49:16;9.10;;;8.20;;
4089;SDS011;2059;48.538;12.146;2022-08-30T17:54:18;8.53;;;7.93;;
4089;SDS011;2059;48.538;12.146;2022-08-30T17:59:22;10.53;;;9.50;;
4089;SDS011;2059;48.538;12.146;2022-08-30T18:04:25;10.43;;;9.60;;
4089;SDS011;2059;48.538;12.146;2022-08-30T18:09:27;9.20;;;8.50;;
4089;SDS011;2059;48.538;12.146;2022-08-30T18:14:30;10.00;;;8.90;;
4089;SDS011;2059;48.538;12.146;2022-08-30T18:19:32;9.30;;;8.43;;
4089;SDS011;2059;48.538;12.146;2022-08-30T18:24:34;11.50;;;10.20;;
4089;SDS011;2059;48.538;12.146;2022-08-30T18:29:37;9.50;;;8.80;;
4089;SDS011;2059;48.538;12.146;2022-08-30T18:34:39;9.60;;;8.70;;
4089;SDS011;2059;48.538;12.146;2022-08-30T18:39:41;11.07;;;10.10;;
4089;SDS011;2059;48.538;12.146;2022-08-30T18:44:45;12.00;;;11.00;;
4089;SDS011;2059;48.538;12.146;2022-08-30T18:49:46;12.10;;;11.00;;
4089;SDS011;2059;48.538;12.146;2022-08-30T18:54:49;9.93;;;9.10;;
4089;SDS011;2059;48.538;12.146;2022-08-30T18:59:52;15.67;;;9.50;;
4089;SDS011;2059;48.538;12.146;2022-08-30T19:04:54;12.13;;;10.10;;
4089;SDS011;2059;48.538;12.146;2022-08-30T19:09:56;13.93;;;11.87;;
4089;SDS011;2059;48.538;12.146;2022-08-30T19:14:59;10.13;;;9.13;;
4089;SDS011;2059;48.538;12.146;2022-08-30T19:20:01;10.43;;;9.37;;
4089;SDS011;2059;48.538;12.146;2022-08-30T19:25:04;10.47;;;9.57;;
4089;SDS011;2059;48.538;12.146;2022-08-30T19:30:10;11.30;;;10.00;;
4089;SDS011;2059;48.538;12.146;2022-08-30T19:35:15;11.20;;;10.30;;
4089;SDS011;2059;48.538;12.146;2022-08-30T19:40:17;11.50;;;10.60;;
4089;SDS011;2059;48.538;12.146;2022-08-30T19:45:21;11.77;;;10.87;;
4089;SDS011;2059;48.538;12.146;2022-08-30T19:50:23;11.07;;;9.77;;
4089;SDS011;2059;48.538;12.146;2022-08-30T19:55:25;11.57;;;10.57;;
4089;SDS011;2059;48.538;12.146;2022-08-30T20:00:29;12.23;;;9.50;;
4089;SDS011;2059;48.538;12.146;2022-08-30T20:05:31;11.33;;;10.23;;
4089;SDS011;2059;48.538;12.146;2022-08-30T20:10:33;10.10;;;9.30;;
4089;SDS011;2059;48.538;12.146;2022-08-30T20:15:37;11.50;;;10.43;;
4089;SDS011;2059;48.538;12.146;2022-08-30T20:20:39;12.23;;;11.20;;
4089;SDS011;2059;48.538;12.146;2022-08-30T20:25:41;11.80;;;10.70;;
4089;SDS011;2059;48.538;12.146;2022-08-30T20:30:45;12.10;;;11.00;;
4089;SDS011;2059;48.538;12.146;2022-08-30T20:35:47;13.33;;;12.13;;
4089;SDS011;2059;48.538;12.146;2022-08-30T20:40:51;11.80;;;10.60;;
4089;SDS011;2059;48.538;12.146;2022-08-30T20:45:57;12.97;;;11.77;;
4089;SDS011;2059;48.538;12.146;2022-08-30T20:51:00;12.83;;;11.40;;
4089;SDS011;2059;48.538;12.146;2022-08-30T20:56:02;13.10;;;11.90;;
4089;SDS011;2059;48.538;12.146;2022-08-30T21:01:07;11.60;;;10.50;;
4089;SDS011;2059;48.538;12.146;2022-08-30T21:06:10;13.90;;;12.60;;
4089;SDS011;2059;48.538;12.146;2022-08-30T21:11:12;13.47;;;12.07;;
4089;SDS011;2059;48.538;12.146;2022-08-30T21:16:16;13.70;;;11.40;;
4089;SDS011;2059;48.538;12.146;2022-08-30T21:21:19;13.63;;;10.70;;
4089;SDS011;2059;48.538;12.146;2022-08-30T21:26:24;14.13;;;12.87;;
4089;SDS011;2059;48.538;12.146;2022-08-30T21:31:28;12.80;;;11.60;;
4089;SDS011;2059;48.538;12.146;2022-08-30T21:36:30;14.43;;;13.03;;
4089;SDS011;2059;48.538;12.146;2022-08-30T21:41:47;13.17;;;11.87;;
4089;SDS011;2059;48.538;12.146;2022-08-30T21:46:53;13.53;;;12.43;;
4089;SDS011;2059;48.538;12.146;2022-08-30T21:51:55;16.20;;;12.43;;
4089;SDS011;2059;48.538;12.146;2022-08-30T21:56:57;15.60;;;13.93;;
4089;SDS011;2059;48.538;12.146;2022-08-30T22:02:05;13.60;;;12.30;;
4089;SDS011;2059;48.538;12.146;2022-08-30T22:07:08;14.17;;;12.60;;
4089;SDS011;2059;48.538;12.146;2022-08-30T22:12:10;14.20;;;13.00;;
4089;SDS011;2059;48.538;12.146;2022-08-30T22:17:13;14.27;;;12.97;;
4089;SDS011;2059;48.538;12.146;2022-08-30T22:22:15;13.53;;;12.43;;
4089;SDS011;2059;48.538;12.146;2022-08-30T22:27:17;12.90;;;11.70;;
4089;SDS011;2059;48.538;12.146;2022-08-30T22:32:20;14.67;;;13.40;;
4089;SDS011;2059;48.538;12.146;2022-08-30T22:37:22;15.10;;;13.83;;
4089;SDS011;2059;48.538;12.146;2022-08-30T22:42:26;13.40;;;12.20;;
4089;SDS011;2059;48.538;12.146;2022-08-30T22:47:30;14.20;;;12.90;;
4089;SDS011;2059;48.538;12.146;2022-08-30T22:52:32;13.67;;;12.27;;
4089;SDS011;2059;48.538;12.146;2022-08-30T22:57:34;15.17;;;12.87;;
4089;SDS011;2059;48.538;12.146;2022-08-30T23:02:39;15.70;;;12.17;;
4089;SDS011;2059;48.538;12.146;2022-08-30T23:07:42;16.10;;;14.67;;
4089;SDS011;2059;48.538;12.146;2022-08-30T23:12:44;17.03;;;15.53;;
4089;SDS011;2059;48.538;12.146;2022-08-30T23:17:47;15.10;;;13.50;;
4089;SDS011;2059;48.538;12.146;2022-08-30T23:22:49;17.20;;;15.50;;
4089;SDS011;2059;48.538;12.146;2022-08-30T23:27:59;17.93;;;16.20;;
4089;SDS011;2059;48.538;12.146;2022-08-30T23:33:19;13.93;;;12.63;;
4089;SDS011;2059;48.538;12.146;2022-08-30T23:38:39;17.77;;;13.43;;
4089;SDS011;2059;48.538;12.146;2022-08-30T23:43:58;16.10;;;14.50;;
4089;SDS011;2059;48.538;12.146;2022-08-30T23:49:19;14.57;;;13.10;;
4089;SDS011;2059;48.538;12.146;2022-08-30T23:54:38;14.93;;;13.33;;
4089;SDS011;2059;48.538;12.146;2022-08-30T23:59:57;14.77;;;13.10;;
